Decoded Metar for KMBL (MANISTEE in MI, USA) (IATA:MBL) | Meteo·Mobile Aviation Weather
aviador You're here:

KMBL Decoded Metar

MANISTEE in MI, USA
Report Time2018-09-22 09:56:00
UTC Time2018-09-22 10:51:05
Flight Rules vfr VFR
Wind090° at 03 kt
W.Decomp.*RWY 09: 3.0 kt HW 0.3 kt RCW
RWY 18: 0.3 kt HW 3 kt LCW
W.Rank090° ranks 2
Current wind is below 090° avg. (5.2)
Visibility9999 m
Phenomena:N/A
Clouds:Overcast 050 Hf
Ceiling5,000 ft
Temp06°C (ISA -8)
Dew Point06°C (100% RH)
AAT4.0°C
QNH1027 hPa
Density Alt-659 ft
Elevation620 ft
Report Wrong Elevation
Raw Report
KMBL 220956Z AUTO 09003KT 10SM OVC050 06/06 A3033 RMK AO2 SLPNO
T00610056=

Extra information for KMBL:More info

Metar Taf Metar & Taf Last 4 Metars F.Rules Stats Wind Profile Meteogram Temp Stats Airport Information Weather charts Add Link Nearby VenuesMetar ALERT Operation Metar Decoded Social comments

AIRNAV info for KMBL